createdAt,value
2022-11-05T00:00:16.634Z,91.03
2022-11-05T00:03:01.364Z,91.10
2022-11-05T00:05:46.577Z,91.14
2022-11-05T00:08:31.964Z,90.94
2022-11-05T00:10:58.451Z,90.92
2022-11-05T00:13:43.484Z,90.85
2022-11-05T00:16:28.137Z,90.98
2022-11-05T00:19:06.558Z,91.11
2022-11-05T00:21:53.489Z,90.38
2022-11-05T00:24:38.789Z,90.66
2022-11-05T00:27:05.618Z,91.38
2022-11-05T00:29:31.984Z,91.05
2022-11-05T00:31:58.362Z,91.22
2022-11-05T00:34:24.708Z,90.77
2022-11-05T00:36:51.260Z,90.57
2022-11-05T00:39:17.634Z,90.99
2022-11-05T00:41:43.999Z,90.75
2022-11-05T00:44:29.191Z,90.67
2022-11-05T00:47:15.572Z,90.80
2022-11-05T00:49:41.957Z,90.76
2022-11-05T00:52:26.978Z,90.46
2022-11-05T00:54:53.352Z,91.11
2022-11-05T00:57:19.727Z,90.65
2022-11-05T00:59:46.085Z,90.16
2022-11-05T01:02:12.662Z,90.96
2022-11-05T01:04:39.052Z,90.26
2022-11-05T01:07:05.421Z,90.24
2022-11-05T01:09:31.736Z,90.18
2022-11-05T01:11:58.104Z,90.16
2022-11-05T01:14:24.507Z,90.31
2022-11-05T01:16:50.871Z,89.99
2022-11-05T01:19:17.327Z,90.34
2022-11-05T01:21:43.686Z,90.29
2022-11-05T01:24:10.722Z,90.70
2022-11-05T01:26:37.058Z,90.59
2022-11-05T01:29:03.548Z,90.63
2022-11-05T01:31:29.981Z,91.07
2022-11-05T01:33:56.414Z,90.45
2022-11-05T01:36:22.800Z,90.08
2022-11-05T01:38:49.173Z,90.06
2022-11-05T01:41:15.508Z,90.24
2022-11-05T01:43:48.340Z,90.50
2022-11-05T01:46:19.887Z,90.22
2022-11-05T01:48:48.064Z,89.75
2022-11-05T01:51:18.564Z,90.04
2022-11-05T01:53:51.558Z,90.29
2022-11-05T01:56:26.531Z,90.03
2022-11-05T01:59:08.669Z,90.24
2022-11-05T02:01:35.280Z,89.73
2022-11-05T02:04:19.210Z,90.45
2022-11-05T02:06:46.635Z,90.62
2022-11-05T02:09:20.553Z,90.09
2022-11-05T02:11:48.236Z,90.80
2022-11-05T02:14:14.636Z,90.96
2022-11-05T02:16:52.203Z,91.03
2022-11-05T02:19:24.560Z,90.68
2022-11-05T02:22:15.149Z,90.92
2022-11-05T02:25:00.148Z,90.67
2022-11-05T02:27:37.330Z,90.41
2022-11-05T02:30:03.663Z,90.81
2022-11-05T02:32:40.220Z,90.55
2022-11-05T02:35:09.542Z,90.68
2022-11-05T02:37:51.771Z,90.67
2022-11-05T02:40:28.970Z,90.59
2022-11-05T02:43:15.992Z,90.74
2022-11-05T02:46:00.931Z,90.49
2022-11-05T02:48:37.348Z,90.74
2022-11-05T02:51:23.759Z,91.10
2022-11-05T02:53:58.283Z,90.88
2022-11-05T02:56:31.168Z,90.61
2022-11-05T02:58:57.587Z,90.54
2022-11-05T03:01:24.078Z,90.86
2022-11-05T03:03:57.599Z,91.00
2022-11-05T03:07:00.887Z,91.17
2022-11-05T03:10:11.775Z,90.82
2022-11-05T03:12:57.080Z,90.84
2022-11-05T03:15:48.659Z,90.90
2022-11-05T03:18:18.252Z,91.16
2022-11-05T03:21:09.461Z,90.84
2022-11-05T03:24:04.068Z,90.77
2022-11-05T03:26:34.075Z,91.26
2022-11-05T03:29:09.815Z,91.50
2022-11-05T03:31:39.613Z,91.44
2022-11-05T03:34:07.855Z,91.49
2022-11-05T03:36:41.834Z,91.61
2022-11-05T03:39:12.656Z,91.60
2022-11-05T03:41:44.300Z,91.77
2022-11-05T03:44:15.791Z,91.43
2022-11-05T03:46:49.230Z,91.29
2022-11-05T03:49:25.723Z,91.49
2022-11-05T03:52:06.106Z,91.15
2022-11-05T03:54:34.024Z,91.45
2022-11-05T03:57:20.739Z,91.27
2022-11-05T03:59:49.954Z,91.23
2022-11-05T04:02:18.927Z,90.86
2022-11-05T04:04:46.278Z,90.99
2022-11-05T04:07:31.394Z,91.10
2022-11-05T04:10:16.552Z,90.90
2022-11-05T04:13:01.520Z,91.39
2022-11-05T04:15:29.554Z,91.26
2022-11-05T04:17:58.802Z,90.86
2022-11-05T04:20:44.987Z,90.81
2022-11-05T04:23:29.842Z,90.88
2022-11-05T04:25:56.207Z,90.58
2022-11-05T04:28:42.521Z,90.54
2022-11-05T04:31:08.932Z,90.34
2022-11-05T04:33:35.251Z,90.49
2022-11-05T04:36:01.608Z,91.10
2022-11-05T04:38:27.993Z,90.47
2022-11-05T04:41:13.152Z,90.78
2022-11-05T04:43:39.790Z,90.42
2022-11-05T04:46:06.360Z,90.17
2022-11-05T04:48:32.762Z,90.24
2022-11-05T04:50:59.154Z,90.69
2022-11-05T04:53:25.555Z,90.40
2022-11-05T04:55:51.980Z,89.92
2022-11-05T04:58:18.308Z,90.32
2022-11-05T05:00:44.733Z,90.14
2022-11-05T05:03:11.666Z,90.42
2022-11-05T05:05:38.311Z,90.40
2022-11-05T05:08:05.678Z,90.35
2022-11-05T05:10:32.758Z,89.89
2022-11-05T05:12:59.062Z,90.10
2022-11-05T05:15:25.383Z,90.05
2022-11-05T05:17:52.542Z,90.02
2022-11-05T05:20:38.489Z,90.12
2022-11-05T05:23:05.026Z,90.42
2022-11-05T05:25:31.491Z,90.33
2022-11-05T05:27:58.573Z,90.30
2022-11-05T05:30:25.382Z,89.86
2022-11-05T05:32:51.737Z,89.91
2022-11-05T05:35:18.092Z,90.20
2022-11-05T05:37:44.544Z,89.92
2022-11-05T05:40:11.777Z,90.32
2022-11-05T05:42:42.881Z,90.34
2022-11-05T05:45:10.764Z,90.11
2022-11-05T05:47:37.193Z,89.96
2022-11-05T05:50:03.993Z,90.68
2022-11-05T05:52:30.387Z,89.98
2022-11-05T05:54:56.713Z,89.94
2022-11-05T05:57:23.074Z,89.80
2022-11-05T05:59:49.442Z,90.30
2022-11-05T06:02:16.061Z,89.69
2022-11-05T06:04:42.495Z,90.55
2022-11-05T06:07:08.803Z,89.69
2022-11-05T06:09:35.154Z,90.04
2022-11-05T06:12:01.547Z,89.84
2022-11-05T06:14:27.897Z,89.95
2022-11-05T06:16:54.255Z,89.69
2022-11-05T06:19:20.662Z,89.97
2022-11-05T06:21:47.036Z,89.92
2022-11-05T06:24:13.370Z,89.86
2022-11-05T06:26:42.823Z,90.42
2022-11-05T06:29:10.494Z,90.10
2022-11-05T06:31:37.128Z,89.96
2022-11-05T06:34:03.505Z,89.41
2022-11-05T06:36:29.911Z,89.91
2022-11-05T06:38:56.266Z,90.15
2022-11-05T06:41:22.657Z,89.95
2022-11-05T06:43:48.999Z,89.90
2022-11-05T06:46:15.539Z,89.89
2022-11-05T06:48:41.874Z,90.10
2022-11-05T06:51:08.530Z,90.03
2022-11-05T06:53:35.658Z,89.51
2022-11-05T06:56:05.676Z,90.00
2022-11-05T06:58:32.283Z,89.97
2022-11-05T07:01:08.455Z,89.89
2022-11-05T07:03:36.465Z,90.32
2022-11-05T07:06:04.491Z,90.00
2022-11-05T07:08:32.456Z,90.11
2022-11-05T07:10:59.577Z,90.04
2022-11-05T07:13:26.037Z,89.95
2022-11-05T07:15:52.593Z,89.71
2022-11-05T07:18:19.300Z,89.75
2022-11-05T07:20:45.663Z,89.79
2022-11-05T07:23:14.070Z,89.88
2022-11-05T07:25:42.143Z,90.28
2022-11-05T07:28:09.582Z,90.00
2022-11-05T07:30:36.604Z,89.81
2022-11-05T07:33:03.676Z,89.87
2022-11-05T07:35:30.188Z,89.24
2022-11-05T07:37:57.037Z,89.21
2022-11-05T07:40:26.011Z,89.10
2022-11-05T07:42:55.186Z,89.15
2022-11-05T07:45:22.168Z,89.24
2022-11-05T07:47:51.059Z,89.21
2022-11-05T07:50:19.569Z,89.20
2022-11-05T07:52:46.481Z,89.67
2022-11-05T07:55:13.352Z,90.28
2022-11-05T07:57:47.618Z,89.83
2022-11-05T08:00:20.054Z,89.67
2022-11-05T08:03:12.055Z,87.70
2022-11-05T08:05:41.945Z,87.47
2022-11-05T08:08:09.427Z,87.61
2022-11-05T08:10:37.302Z,87.88
2022-11-05T08:13:04.954Z,86.48
2022-11-05T08:15:31.949Z,85.58
2022-11-05T08:17:59.728Z,85.31
2022-11-05T08:20:26.296Z,84.43
2022-11-05T08:22:53.588Z,83.42
2022-11-05T08:25:20.562Z,82.22
2022-11-05T08:27:46.975Z,82.79
2022-11-05T08:30:13.400Z,81.18
2022-11-05T08:32:39.749Z,80.46
2022-11-05T08:35:06.477Z,81.04
2022-11-05T08:37:32.944Z,78.95
2022-11-05T08:39:59.363Z,78.42
2022-11-05T08:42:25.755Z,76.58
2022-11-05T08:44:52.156Z,76.26
2022-11-05T08:47:18.544Z,75.58
2022-11-05T08:49:44.921Z,75.48
2022-11-05T08:52:11.248Z,74.19
2022-11-05T08:54:37.660Z,72.76
2022-11-05T08:57:04.270Z,71.84
2022-11-05T08:59:31.436Z,73.02
2022-11-05T09:01:57.984Z,72.89
2022-11-05T09:04:24.569Z,71.15
2022-11-05T09:06:51.242Z,70.06
2022-11-05T09:09:17.674Z,69.38
2022-11-05T09:12:10.459Z,67.22
2022-11-05T09:14:31.509Z,65.68
2022-11-05T09:16:57.875Z,66.91
2022-11-05T09:19:24.481Z,66.60
2022-11-05T09:21:50.818Z,65.28
2022-11-05T09:24:17.480Z,65.11
2022-11-05T09:26:43.837Z,63.05
2022-11-05T09:29:14.264Z,62.40
2022-11-05T09:31:42.060Z,61.19
2022-11-05T09:34:09.249Z,59.06
2022-11-05T09:36:36.097Z,56.98
2022-11-05T09:39:03.163Z,55.17
2022-11-05T09:41:35.781Z,56.61
2022-11-05T09:44:27.120Z,56.19
2022-11-05T09:47:02.870Z,52.96
2022-11-05T09:49:40.013Z,55.19
2022-11-05T09:52:13.831Z,53.29
2022-11-05T09:54:40.404Z,51.59
2022-11-05T09:57:12.487Z,52.63
2022-11-05T09:59:45.830Z,50.73
2022-11-05T10:02:34.271Z,50.62
2022-11-05T10:05:09.757Z,48.51
2022-11-05T10:07:51.180Z,48.42
2022-11-05T10:10:45.224Z,46.99
2022-11-05T10:13:33.280Z,48.67
2022-11-05T10:16:14.094Z,48.25
2022-11-05T10:18:49.386Z,46.41
2022-11-05T10:21:27.782Z,47.09
2022-11-05T10:24:14.663Z,44.51
2022-11-05T10:26:41.631Z,46.28
2022-11-05T10:29:12.907Z,44.43
2022-11-05T10:31:39.899Z,45.13
2022-11-05T10:34:08.228Z,44.05
2022-11-05T10:36:37.121Z,43.62
2022-11-05T10:39:15.537Z,43.57
2022-11-05T10:42:02.347Z,44.21
2022-11-05T10:44:37.279Z,45.08
2022-11-05T10:47:31.007Z,47.55
2022-11-05T10:50:02.670Z,48.33
2022-11-05T10:52:35.887Z,49.37
2022-11-05T10:55:16.116Z,50.02
2022-11-05T10:57:42.831Z,50.00
2022-11-05T11:00:15.478Z,48.05
2022-11-05T11:02:43.576Z,47.72
2022-11-05T11:05:18.748Z,50.43
2022-11-05T11:08:03.548Z,51.75
2022-11-05T11:10:37.838Z,49.38
2022-11-05T11:13:04.262Z,49.91
2022-11-05T11:15:35.112Z,50.96
2022-11-05T11:18:35.875Z,52.15
2022-11-05T11:21:12.975Z,54.62
2022-11-05T11:23:41.335Z,51.10
2022-11-05T11:26:10.234Z,50.59
2022-11-05T11:28:39.295Z,51.71
2022-11-05T11:31:12.403Z,53.31
2022-11-05T11:33:42.458Z,54.71
2022-11-05T11:36:11.689Z,55.20
2022-11-05T11:38:39.099Z,58.60
2022-11-05T11:41:16.127Z,60.52
2022-11-05T11:43:44.154Z,59.39
2022-11-05T11:46:17.856Z,59.26
2022-11-05T11:48:47.546Z,60.03
2022-11-05T11:51:16.869Z,62.24
2022-11-05T11:53:43.401Z,62.69
2022-11-05T11:56:16.201Z,61.72
2022-11-05T11:58:51.139Z,62.57
2022-11-05T12:01:25.989Z,61.57
2022-11-05T12:04:07.654Z,62.65
2022-11-05T12:06:52.499Z,63.19
2022-11-05T12:09:36.285Z,63.38
2022-11-05T12:12:11.559Z,63.67
2022-11-05T12:14:40.208Z,61.93
2022-11-05T12:17:36.731Z,61.88
2022-11-05T12:20:12.156Z,63.04
2022-11-05T12:22:38.480Z,62.38
2022-11-05T12:25:37.219Z,61.61
2022-11-05T12:28:18.856Z,61.67
2022-11-05T12:30:59.904Z,61.25
2022-11-05T12:33:42.341Z,59.53
2022-11-05T12:36:42.230Z,62.34
2022-11-05T12:39:19.612Z,64.08
2022-11-05T12:42:38.888Z,61.50
2022-11-05T12:45:19.818Z,62.21
2022-11-05T12:48:12.256Z,61.82
2022-11-05T12:51:02.330Z,61.62
2022-11-05T12:53:34.746Z,61.90
2022-11-05T12:56:07.247Z,61.38
2022-11-05T12:58:45.299Z,61.97
2022-11-05T13:01:21.002Z,62.53
2022-11-05T13:04:01.512Z,61.91
2022-11-05T13:06:35.573Z,61.78
2022-11-05T13:09:05.375Z,63.23
2022-11-05T13:11:48.240Z,61.92
2022-11-05T13:14:21.465Z,62.81
2022-11-05T13:16:53.229Z,63.01
2022-11-05T13:19:46.356Z,62.61
2022-11-05T13:22:25.323Z,63.12
2022-11-05T13:25:10.492Z,63.21
2022-11-05T13:27:52.468Z,63.42
2022-11-05T13:30:25.061Z,62.87
2022-11-05T13:33:22.558Z,62.86
2022-11-05T13:36:17.320Z,62.56
2022-11-05T13:39:00.571Z,61.58
2022-11-05T13:41:51.738Z,60.73
2022-11-05T13:44:53.235Z,60.78
2022-11-05T13:47:39.128Z,62.00
2022-11-05T13:50:26.326Z,61.14
2022-11-05T13:53:14.553Z,62.17
2022-11-05T13:55:44.037Z,62.22
2022-11-05T13:58:17.187Z,62.28
2022-11-05T14:00:56.653Z,62.84
2022-11-05T14:03:23.537Z,63.12
2022-11-05T14:05:57.879Z,64.71
2022-11-05T14:08:27.681Z,65.02
2022-11-05T14:11:02.022Z,63.87
2022-11-05T14:13:39.170Z,64.29
2022-11-05T14:16:09.733Z,63.90
2022-11-05T14:18:45.343Z,64.42
2022-11-05T14:21:27.177Z,64.39
2022-11-05T14:24:01.630Z,64.08
2022-11-05T14:26:30.343Z,63.58
2022-11-05T14:29:02.471Z,63.98
2022-11-05T14:32:07.316Z,63.31
2022-11-05T14:34:47.574Z,63.98
2022-11-05T14:37:25.598Z,64.32
2022-11-05T14:39:53.774Z,63.74
2022-11-05T14:42:23.570Z,63.14
2022-11-05T14:45:22.637Z,63.57
2022-11-05T14:48:01.148Z,63.44
2022-11-05T14:50:41.737Z,63.50
2022-11-05T14:53:32.076Z,63.91
2022-11-05T14:56:27.796Z,64.57
2022-11-05T14:59:31.485Z,63.84
2022-11-05T15:02:03.736Z,64.70
2022-11-05T15:04:33.207Z,64.12
2022-11-05T15:07:02.703Z,63.75
2022-11-05T15:09:34.634Z,64.05
2022-11-05T15:12:04.328Z,65.22
2022-11-05T15:14:35.115Z,64.96
2022-11-05T15:17:17.168Z,64.57
2022-11-05T15:19:45.600Z,63.39
2022-11-05T15:22:43.594Z,64.38
2022-11-05T15:25:17.911Z,65.29
2022-11-05T15:28:03.983Z,64.56
2022-11-05T15:30:31.000Z,64.32
2022-11-05T15:33:09.692Z,64.64
2022-11-05T15:35:41.167Z,65.13
2022-11-05T15:38:36.878Z,65.33
2022-11-05T15:41:06.621Z,66.01
2022-11-05T15:43:33.006Z,66.50
2022-11-05T15:46:15.741Z,66.49
2022-11-05T15:48:46.762Z,66.30
2022-11-05T15:51:13.398Z,66.99
2022-11-05T15:54:15.597Z,66.54
2022-11-05T15:56:37.433Z,66.60
2022-11-05T15:59:07.142Z,66.33
2022-11-05T16:01:36.597Z,66.95
2022-11-05T16:04:24.174Z,66.63
2022-11-05T16:06:53.788Z,67.25
2022-11-05T16:09:29.245Z,66.89
2022-11-05T16:12:24.109Z,67.02
2022-11-05T16:14:56.577Z,67.13
2022-11-05T16:17:26.669Z,67.24
2022-11-05T16:19:53.764Z,67.08
2022-11-05T16:22:20.568Z,67.02
2022-11-05T16:24:47.079Z,67.36
2022-11-05T16:27:19.819Z,67.00
2022-11-05T16:29:50.827Z,68.28
2022-11-05T16:32:30.820Z,67.52
2022-11-05T16:35:01.662Z,67.36
2022-11-05T16:37:39.635Z,67.25
2022-11-05T16:40:22.898Z,67.95
2022-11-05T16:42:51.513Z,67.67
2022-11-05T16:45:20.850Z,67.70
2022-11-05T16:47:47.923Z,68.33
2022-11-05T16:50:20.199Z,67.83
2022-11-05T16:52:47.208Z,67.50
2022-11-05T16:55:14.922Z,68.01
2022-11-05T16:57:43.486Z,67.20
2022-11-05T17:00:18.059Z,67.67
2022-11-05T17:02:45.085Z,66.79
2022-11-05T17:05:27.554Z,67.24
2022-11-05T17:07:54.609Z,66.95
2022-11-05T17:10:21.948Z,67.55
2022-11-05T17:12:49.395Z,66.81
2022-11-05T17:15:26.595Z,67.16
2022-11-05T17:17:54.204Z,67.30
2022-11-05T17:20:43.827Z,67.14
2022-11-05T17:23:13.326Z,66.75
2022-11-05T17:25:46.724Z,66.73
2022-11-05T17:28:13.486Z,66.85
2022-11-05T17:30:41.738Z,67.49
2022-11-05T17:33:10.421Z,67.49
2022-11-05T17:35:41.047Z,67.65
2022-11-05T17:38:08.467Z,67.48
2022-11-05T17:40:36.209Z,67.60
2022-11-05T17:43:03.413Z,67.62
2022-11-05T17:45:30.099Z,67.95
2022-11-05T17:47:56.472Z,68.26
2022-11-05T17:50:22.998Z,68.20
2022-11-05T17:52:49.422Z,68.44
2022-11-05T17:55:17.174Z,68.43
2022-11-05T17:57:48.402Z,68.79
2022-11-05T18:00:24.055Z,68.88
2022-11-05T18:02:52.687Z,68.85
2022-11-05T18:05:20.190Z,68.90
2022-11-05T18:07:47.422Z,69.22
2022-11-05T18:10:14.205Z,69.61
2022-11-05T18:12:41.052Z,69.75
2022-11-05T18:15:08.658Z,69.59
2022-11-05T18:17:35.372Z,69.85
2022-11-05T18:20:02.154Z,70.27
2022-11-05T18:22:28.602Z,70.77
2022-11-05T18:24:55.040Z,70.50
2022-11-05T18:27:24.504Z,70.62
2022-11-05T18:29:51.208Z,70.97
2022-11-05T18:32:17.648Z,70.83
2022-11-05T18:34:44.037Z,70.78
2022-11-05T18:37:10.475Z,71.16
2022-11-05T18:39:37.171Z,71.49
2022-11-05T18:42:03.671Z,71.61
2022-11-05T18:44:32.712Z,71.68
2022-11-05T18:47:02.835Z,71.49
2022-11-05T18:49:29.215Z,72.16
2022-11-05T18:51:55.559Z,72.24
2022-11-05T18:54:22.001Z,72.51
2022-11-05T18:56:48.430Z,72.45
2022-11-05T19:02:04.455Z,72.69
2022-11-05T19:04:30.890Z,72.58
2022-11-05T19:07:01.671Z,72.86
2022-11-05T19:09:31.151Z,73.14
2022-11-05T19:11:57.533Z,73.24
2022-11-05T19:14:24.107Z,73.10
2022-11-05T19:16:50.562Z,73.16
2022-11-05T19:19:16.977Z,73.62
2022-11-05T19:21:43.336Z,73.06
2022-11-05T19:24:10.146Z,73.26
2022-11-05T19:26:36.563Z,73.26
2022-11-05T19:29:03.717Z,73.61
2022-11-05T19:31:32.295Z,73.77
2022-11-05T19:34:00.916Z,73.49
2022-11-05T19:36:27.801Z,73.65
2022-11-05T19:38:59.952Z,73.89
2022-11-05T19:41:27.123Z,73.39
2022-11-05T19:43:54.863Z,73.72
2022-11-05T19:46:24.028Z,73.71
2022-11-05T19:48:51.050Z,74.16
2022-11-05T19:51:22.968Z,73.98
2022-11-05T19:53:52.288Z,74.00
2022-11-05T19:56:24.430Z,73.93
2022-11-05T19:58:52.938Z,74.08
2022-11-05T20:01:20.879Z,73.95
2022-11-05T20:03:47.475Z,74.50
2022-11-05T20:06:28.254Z,74.68
2022-11-05T20:11:44.946Z,74.85
2022-11-05T20:14:11.270Z,74.93
2022-11-05T20:16:39.058Z,75.54
2022-11-05T20:19:08.195Z,75.67
2022-11-05T20:21:34.801Z,75.39
2022-11-05T20:24:01.366Z,75.39
2022-11-05T20:26:28.544Z,75.69
2022-11-05T20:28:55.363Z,75.53
2022-11-05T20:31:21.896Z,75.80
2022-11-05T20:33:48.473Z,75.87
2022-11-05T20:36:22.047Z,75.53
2022-11-05T20:38:55.090Z,75.62
2022-11-05T20:41:21.926Z,75.70
2022-11-05T20:43:48.433Z,75.44
2022-11-05T20:46:17.643Z,75.21
2022-11-05T20:48:44.664Z,75.40
2022-11-05T20:51:14.443Z,75.28
2022-11-05T20:53:41.124Z,75.27
2022-11-05T20:56:10.293Z,75.56
2022-11-05T20:58:37.995Z,75.51
2022-11-05T21:01:05.638Z,75.35
2022-11-05T21:03:32.590Z,75.19
2022-11-05T21:06:01.973Z,75.79
2022-11-05T21:08:28.947Z,75.52
2022-11-05T21:10:56.384Z,75.35
2022-11-05T21:13:24.055Z,75.24
2022-11-05T21:15:53.263Z,75.53
2022-11-05T21:18:21.908Z,75.33
2022-11-05T21:20:48.655Z,75.08
2022-11-05T21:23:15.694Z,75.25
2022-11-05T21:25:43.654Z,75.35
2022-11-05T21:28:11.600Z,75.69
2022-11-05T21:30:41.568Z,75.46
2022-11-05T21:33:08.633Z,76.12
2022-11-05T21:35:39.107Z,75.83
2022-11-05T21:38:05.422Z,75.51
2022-11-05T21:40:32.682Z,75.97
2022-11-05T21:42:59.048Z,76.24
2022-11-05T21:45:26.024Z,75.87
2022-11-05T21:47:52.421Z,76.71
2022-11-05T21:50:45.279Z,76.43
2022-11-05T21:53:34.467Z,76.38
2022-11-05T21:56:24.834Z,76.20
2022-11-05T21:59:09.631Z,76.05
2022-11-05T22:01:36.134Z,76.42
2022-11-05T22:04:03.361Z,75.82
2022-11-05T22:06:32.934Z,76.02
2022-11-05T22:08:59.831Z,76.69
2022-11-05T22:11:26.258Z,76.84
2022-11-05T22:13:53.311Z,76.82
2022-11-05T22:16:19.789Z,76.78
2022-11-05T22:18:46.266Z,77.33
2022-11-05T22:21:18.153Z,76.88
2022-11-05T22:23:44.813Z,76.92
2022-11-05T22:26:11.230Z,77.32
2022-11-05T22:28:37.612Z,77.27
2022-11-05T22:31:03.997Z,77.32
2022-11-05T22:33:30.944Z,77.87
2022-11-05T22:35:57.279Z,78.12
2022-11-05T22:38:23.680Z,78.18
2022-11-05T22:40:50.293Z,78.33
2022-11-05T22:43:16.800Z,78.13
2022-11-05T22:45:43.836Z,78.46
2022-11-05T22:48:10.583Z,79.03
2022-11-05T22:50:37.286Z,79.77
2022-11-05T22:53:03.851Z,78.96
2022-11-05T22:55:30.328Z,78.90
2022-11-05T22:57:56.875Z,79.23
2022-11-05T23:00:37.139Z,79.00
2022-11-05T23:03:03.838Z,79.41
2022-11-05T23:05:30.351Z,79.29
2022-11-05T23:08:15.600Z,79.66
2022-11-05T23:11:00.894Z,79.67
2022-11-05T23:13:27.285Z,80.00
2022-11-05T23:16:12.032Z,80.00
2022-11-05T23:18:56.828Z,80.10
2022-11-05T23:21:41.486Z,80.21
2022-11-05T23:24:08.245Z,80.21
2022-11-05T23:26:51.240Z,80.38
2022-11-05T23:29:23.877Z,80.69
2022-11-05T23:32:09.596Z,80.43
2022-11-05T23:34:36.670Z,80.90
2022-11-05T23:37:24.742Z,81.07
2022-11-05T23:39:51.300Z,80.93
2022-11-05T23:42:36.388Z,80.92
2022-11-05T23:45:23.238Z,81.17
2022-11-05T23:48:08.625Z,81.13
2022-11-05T23:50:39.571Z,81.33
2022-11-05T23:53:06.591Z,81.99
2022-11-05T23:55:32.986Z,81.91
2022-11-05T23:57:59.307Z,81.01
